Time;durP1;ratioP1;P1;durP2;ratioP2;P2;SDS_P1;SDS_P2;PMS_P1;PMS_P2;Temp;Humidity;BMP_temperature;BMP_pressure;BME280_temperature;BME280_humidity;BME280_pressure;Samples;Min_cycle;Max_cycle;Signal;HPM_P1;HPM_P2
2022/06/25 00:00:02;;;;;;;2.33;2.00;;;16.20;99.90;;;;;;5004036;28;20468;-39
2022/06/25 00:02:28;;;;;;;2.60;2.08;;;16.30;99.90;;;;;;5002398;28;20412;-37
2022/06/25 00:07:38;;;;;;;2.17;1.63;;;16.20;99.90;;;;;;5005417;28;20056;-39
2022/06/25 00:10:04;;;;;;;1.80;1.70;;;16.20;99.90;;;;;;5001991;28;20449;-39
2022/06/25 00:12:32;;;;;;;2.08;1.70;;;16.20;99.90;;;;;;5003786;28;20033;-38
2022/06/25 00:15:00;;;;;;;2.25;2.05;;;16.10;99.90;;;;;;5002390;28;20029;-37
2022/06/25 00:17:25;;;;;;;2.65;1.73;;;16.10;99.90;;;;;;5005322;28;20022;-39
2022/06/25 00:19:51;;;;;;;1.75;1.52;;;16.10;99.90;;;;;;5003093;28;20661;-39
2022/06/25 00:22:17;;;;;;;2.22;1.77;;;16.10;99.90;;;;;;5003870;28;20080;-40
2022/06/25 00:24:42;;;;;;;1.92;1.60;;;16.10;99.90;;;;;;5003674;28;20041;-36
2022/06/25 00:27:08;;;;;;;1.75;1.65;;;16.10;99.90;;;;;;5002672;28;20092;-36
2022/06/25 00:29:34;;;;;;;1.80;1.70;;;16.10;99.90;;;;;;5003010;28;20431;-38
2022/06/25 00:31:59;;;;;;;2.03;1.70;;;16.10;99.90;;;;;;5004339;28;20108;-36
2022/06/25 00:34:26;;;;;;;2.15;1.70;;;16.10;99.90;;;;;;5001619;28;20029;-37
2022/06/25 00:36:52;;;;;;;1.60;1.50;;;16.10;99.90;;;;;;5003264;28;20033;-37
2022/06/25 00:39:17;;;;;;;3.28;1.60;;;16.10;99.90;;;;;;5002368;28;20100;-39
2022/06/25 00:41:43;;;;;;;1.40;1.35;;;16.10;99.90;;;;;;5002347;28;20054;-36
2022/06/25 00:44:09;;;;;;;1.75;1.45;;;16.00;99.90;;;;;;5001831;28;20045;-37
2022/06/25 00:46:35;;;;;;;1.30;1.30;;;16.00;99.90;;;;;;5004554;28;20502;-40
2022/06/25 00:49:02;;;;;;;3.28;1.65;;;16.00;99.90;;;;;;5002440;28;20053;-37
2022/06/25 00:51:31;;;;;;;1.98;1.73;;;16.00;99.90;;;;;;5001694;28;20034;-40
2022/06/25 00:54:02;;;;;;;3.15;1.75;;;15.90;99.90;;;;;;5002312;28;20041;-39
2022/06/25 00:56:35;;;;;;;1.42;1.33;;;15.90;99.90;;;;;;5002124;28;20034;-38
2022/06/25 00:59:03;;;;;;;1.13;1.10;;;16.00;99.90;;;;;;5003539;28;20049;-36
2022/06/25 01:01:31;;;;;;;1.55;1.45;;;16.00;99.90;;;;;;4999060;28;20453;-37
2022/06/25 01:03:57;;;;;;;;;;;16.00;99.90;;;;;;4998942;28;20042;-35
2022/06/25 01:06:23;;;;;;;2.05;1.60;;;16.00;99.90;;;;;;5000278;28;19921;-37
2022/06/25 01:08:49;;;;;;;4.65;1.60;;;16.00;99.90;;;;;;4998765;28;20038;-39
2022/06/25 01:11:15;;;;;;;2.65;1.60;;;15.90;99.90;;;;;;4997946;28;20439;-39
2022/06/25 01:13:41;;;;;;;3.80;1.73;;;16.00;99.90;;;;;;4999423;28;20235;-38
2022/06/25 01:16:06;;;;;;;3.90;1.90;;;16.00;99.90;;;;;;4999511;28;20670;-36
2022/06/25 01:18:32;;;;;;;1.60;1.50;;;16.00;99.90;;;;;;5000240;28;20080;-38
2022/06/25 01:21:00;;;;;;;1.70;1.50;;;16.00;99.90;;;;;;5000001;28;20476;-38
2022/06/25 01:23:25;;;;;;;1.60;1.50;;;16.00;99.90;;;;;;5000667;28;20116;-39
2022/06/25 01:25:52;;;;;;;2.05;1.40;;;16.10;99.90;;;;;;5000171;28;20508;-36
2022/06/25 01:28:18;;;;;;;1.70;1.58;;;16.10;99.90;;;;;;5000986;28;20038;-36
2022/06/25 01:30:43;;;;;;;1.60;1.50;;;16.20;99.90;;;;;;4999536;28;20046;-38
2022/06/25 01:33:09;;;;;;;2.30;1.60;;;16.10;99.90;;;;;;4999956;28;20022;-39
2022/06/25 01:35:35;;;;;;;1.80;1.63;;;16.20;99.90;;;;;;4999286;28;20105;-38
2022/06/25 01:38:02;;;;;;;1.90;1.70;;;16.20;99.90;;;;;;4998532;28;20034;-39
2022/06/25 01:40:28;;;;;;;1.60;1.50;;;16.10;99.90;;;;;;4998984;28;20104;-38
2022/06/25 01:43:01;;;;;;;1.45;1.35;;;16.10;99.90;;;;;;4999741;28;20531;-39
2022/06/25 01:45:32;;;;;;;1.77;1.67;;;16.20;99.90;;;;;;4997029;28;20365;-36
2022/06/25 01:47:59;;;;;;;3.25;1.60;;;16.20;99.90;;;;;;4999960;28;20041;-36
2022/06/25 01:50:25;;;;;;;1.83;1.65;;;16.10;99.90;;;;;;4999272;28;20403;-39
2022/06/25 01:52:51;;;;;;;1.73;1.52;;;16.10;99.90;;;;;;5001826;28;20032;-38
2022/06/25 01:55:18;;;;;;;4.53;1.60;;;16.10;99.90;;;;;;4997231;28;20030;-39
2022/06/25 01:57:44;;;;;;;1.38;1.27;;;16.10;99.90;;;;;;4999685;28;20041;-39
2022/06/25 02:00:12;;;;;;;1.50;1.40;;;16.10;99.90;;;;;;4999623;28;20034;-38
2022/06/25 02:02:39;;;;;;;1.60;1.50;;;16.10;99.90;;;;;;4998229;28;20053;-39
2022/06/25 02:05:06;;;;;;;2.88;1.55;;;16.10;99.90;;;;;;5000330;28;20029;-38
2022/06/25 02:07:31;;;;;;;3.92;1.63;;;16.10;99.90;;;;;;4998336;28;20061;-39
2022/06/25 02:09:57;;;;;;;2.08;1.70;;;16.10;99.90;;;;;;4998803;28;21108;-36
2022/06/25 02:12:23;;;;;;;1.50;1.40;;;16.10;99.90;;;;;;4998696;28;20077;-37
2022/06/25 02:14:48;;;;;;;1.80;1.60;;;16.10;99.90;;;;;;4998756;28;20018;-37
2022/06/25 02:17:14;;;;;;;1.60;1.50;;;16.10;99.90;;;;;;5003331;28;20148;-39
2022/06/25 02:19:40;;;;;;;4.00;1.67;;;16.10;99.90;;;;;;5002996;28;20026;-39
2022/06/25 02:22:06;;;;;;;1.73;1.63;;;16.00;99.90;;;;;;4999084;28;20664;-39
2022/06/25 02:24:32;;;;;;;1.58;1.48;;;16.00;99.90;;;;;;4998713;28;20026;-38
2022/06/25 02:26:57;;;;;;;2.15;1.50;;;16.00;99.90;;;;;;4998830;28;20034;-36
2022/06/25 02:29:23;;;;;;;2.15;1.40;;;16.00;99.90;;;;;;4999682;28;20041;-39
2022/06/25 02:31:49;;;;;;;1.50;1.40;;;16.00;99.90;;;;;;4997066;28;20531;-39
2022/06/25 02:34:15;;;;;;;5.97;1.80;;;16.10;99.90;;;;;;4998986;28;20026;-37
2022/06/25 02:36:41;;;;;;;1.50;1.40;;;16.10;99.90;;;;;;4997849;28;20027;-36
2022/06/25 02:39:06;;;;;;;1.95;1.60;;;16.10;99.90;;;;;;4998839;28;20466;-39
2022/06/25 02:41:32;;;;;;;1.98;1.77;;;16.10;99.90;;;;;;4999145;28;20042;-39
2022/06/25 02:43:57;;;;;;;2.30;1.50;;;16.10;99.90;;;;;;4997335;28;20565;-39
2022/06/25 02:46:23;;;;;;;3.05;1.75;;;16.00;99.90;;;;;;5013413;28;20044;-39
2022/06/25 02:48:49;;;;;;;2.40;1.50;;;16.00;99.90;;;;;;4999635;28;20168;-36
2022/06/25 02:51:14;;;;;;;2.75;1.40;;;16.10;99.90;;;;;;5004466;28;20483;-36
2022/06/25 02:53:40;;;;;;;1.85;1.52;;;16.00;99.90;;;;;;5005084;28;20030;-36
2022/06/25 02:58:54;;;;;;;3.17;1.50;;;16.00;99.90;;;;;;5003238;28;20040;-36
2022/06/25 03:01:20;;;;;;;3.53;1.60;;;16.00;99.90;;;;;;5002121;28;20559;-39
2022/06/25 03:03:45;;;;;;;1.85;1.60;;;15.90;99.90;;;;;;5001419;28;20441;-37
2022/06/25 03:06:11;;;;;;;2.00;1.70;;;15.90;99.90;;;;;;5002439;28;20033;-39
2022/06/25 03:08:37;;;;;;;1.58;1.48;;;15.90;99.90;;;;;;5003149;28;20042;-39
2022/06/25 03:11:03;;;;;;;1.65;1.42;;;16.00;99.90;;;;;;5001942;28;20053;-39
2022/06/25 03:13:31;;;;;;;2.35;1.70;;;16.00;99.90;;;;;;5003655;28;20030;-39
2022/06/25 03:15:57;;;;;;;1.60;1.50;;;16.00;99.90;;;;;;5001552;28;21031;-39
2022/06/25 03:18:23;;;;;;;1.55;1.45;;;15.90;99.90;;;;;;5000815;28;20056;-39
2022/06/25 03:20:50;;;;;;;1.88;1.77;;;15.90;99.90;;;;;;5001129;28;20584;-38
2022/06/25 03:23:16;;;;;;;2.63;1.70;;;15.90;99.90;;;;;;5002296;28;20709;-37
2022/06/25 03:25:42;;;;;;;1.80;1.70;;;15.90;99.90;;;;;;5002763;28;20037;-39
2022/06/25 03:28:07;;;;;;;2.92;1.80;;;15.90;99.90;;;;;;5002398;28;20041;-39
2022/06/25 03:30:33;;;;;;;1.70;1.60;;;15.90;99.90;;;;;;5002704;28;20060;-39
2022/06/25 03:32:59;;;;;;;1.70;1.60;;;15.80;99.90;;;;;;5001235;28;20774;-38
2022/06/25 03:35:24;;;;;;;1.63;1.50;;;15.80;99.90;;;;;;5000143;28;20033;-36
2022/06/25 03:37:50;;;;;;;2.28;1.65;;;15.80;99.90;;;;;;5002744;28;20034;-37
2022/06/25 03:40:17;;;;;;;1.65;1.55;;;15.80;99.90;;;;;;5000123;28;20099;-37
2022/06/25 03:42:43;;;;;;;2.78;1.67;;;15.80;99.90;;;;;;5003028;28;20479;-39
2022/06/25 03:45:09;;;;;;;1.98;1.58;;;15.80;99.90;;;;;;5001460;28;20368;-39
2022/06/25 03:47:35;;;;;;;3.10;1.67;;;15.80;99.90;;;;;;5000378;28;20040;-39
2022/06/25 03:50:01;;;;;;;2.38;1.70;;;15.80;99.90;;;;;;5001613;28;20033;-39
2022/06/25 03:52:27;;;;;;;5.28;1.70;;;15.80;99.90;;;;;;5017530;28;20482;-39
2022/06/25 03:54:53;;;;;;;2.90;1.67;;;15.90;99.90;;;;;;5002481;28;20038;-35
2022/06/25 03:57:18;;;;;;;2.75;1.60;;;15.80;99.90;;;;;;4999254;28;20038;-36
2022/06/25 03:59:44;;;;;;;3.35;1.60;;;15.80;99.90;;;;;;5000004;28;20049;-39
2022/06/25 04:02:09;;;;;;;4.03;1.48;;;15.80;99.90;;;;;;4999657;28;20054;-38
2022/06/25 04:04:35;;;;;;;1.60;1.50;;;15.80;99.90;;;;;;5000224;28;20064;-39
2022/06/25 04:07:01;;;;;;;1.77;1.60;;;15.80;99.90;;;;;;4999703;28;20050;-38
2022/06/25 04:09:26;;;;;;;2.92;1.55;;;15.80;99.90;;;;;;5003097;28;20772;-39
2022/06/25 04:11:52;;;;;;;1.70;1.60;;;15.70;99.90;;;;;;5002242;28;20033;-38
2022/06/25 04:14:17;;;;;;;2.45;1.88;;;15.70;99.90;;;;;;5001800;28;20038;-36
2022/06/25 04:16:43;;;;;;;2.15;1.40;;;15.60;99.90;;;;;;5015840;28;20038;-35
2022/06/25 04:19:08;;;;;;;1.40;1.30;;;15.60;99.90;;;;;;5000959;28;20041;-37
2022/06/25 04:21:34;;;;;;;1.40;1.33;;;15.50;99.90;;;;;;5001916;28;20966;-37
2022/06/25 04:24:00;;;;;;;2.15;1.40;;;15.50;99.90;;;;;;4998256;28;20034;-39
2022/06/25 04:26:26;;;;;;;2.05;1.45;;;15.50;99.90;;;;;;4999792;28;20042;-39
2022/06/25 04:29:03;;;;;;;1.73;1.20;;;15.50;99.90;;;;;;4999852;28;20034;-37
2022/06/25 04:31:30;;;;;;;1.23;1.13;;;15.50;99.90;;;;;;4998886;28;20073;-38
2022/06/25 04:33:56;;;;;;;1.92;1.30;;;15.40;99.90;;;;;;5000398;28;20475;-37
2022/06/25 04:36:22;;;;;;;2.67;1.33;;;15.30;99.90;;;;;;5001751;28;20025;-37
2022/06/25 04:38:49;;;;;;;3.83;1.45;;;15.30;99.90;;;;;;5001640;28;20037;-39
2022/06/25 04:41:15;;;;;;;1.58;1.48;;;15.40;99.90;;;;;;5000834;28;20089;-39
2022/06/25 04:43:41;;;;;;;1.23;1.13;;;15.40;99.90;;;;;;5001027;28;20499;-36
2022/06/25 04:46:06;;;;;;;2.58;1.45;;;15.40;99.90;;;;;;4998794;28;20060;-39
2022/06/25 04:48:32;;;;;;;1.63;1.52;;;15.40;99.90;;;;;;4998977;28;20045;-39
2022/06/25 04:50:58;;;;;;;1.42;1.33;;;15.20;99.90;;;;;;5000787;28;20028;-36
2022/06/25 04:53:23;;;;;;;2.40;1.30;;;15.20;99.90;;;;;;5001585;28;20159;-39
2022/06/25 04:55:49;;;;;;;2.35;1.52;;;15.30;99.90;;;;;;4999130;28;20114;-39
2022/06/25 04:58:15;;;;;;;2.15;1.23;;;15.30;99.90;;;;;;4999176;28;20108;-39
2022/06/25 05:00:40;;;;;;;2.35;1.60;;;15.30;99.90;;;;;;5000437;28;20407;-38
2022/06/25 05:03:07;;;;;;;2.63;1.90;;;15.30;99.90;;;;;;5000434;28;20528;-38
2022/06/25 05:05:33;;;;;;;3.83;1.70;;;15.20;99.90;;;;;;5000586;28;20041;-39
2022/06/25 05:07:59;;;;;;;1.58;1.27;;;15.20;99.90;;;;;;4999923;28;20045;-39
2022/06/25 05:10:26;;;;;;;3.60;1.90;;;15.20;99.90;;;;;;5013644;28;20041;-38
2022/06/25 05:15:36;;;;;;;3.05;1.70;;;15.40;99.90;;;;;;5002036;28;20041;-37
2022/06/25 05:18:02;;;;;;;2.08;1.50;;;15.40;99.90;;;;;;4998288;28;20429;-38
2022/06/25 05:20:28;;;;;;;3.08;1.70;;;15.40;99.90;;;;;;4999431;28;20034;-38
2022/06/25 05:22:53;;;;;;;3.05;1.40;;;15.50;99.90;;;;;;5002450;28;20033;-39
2022/06/25 05:25:19;;;;;;;3.00;1.60;;;15.70;99.90;;;;;;5000227;28;20033;-36
2022/06/25 05:27:45;;;;;;;5.93;2.17;;;15.80;99.90;;;;;;4998920;28;20057;-39
2022/06/25 05:30:11;;;;;;;2.33;1.80;;;15.80;99.90;;;;;;5000474;28;20125;-39
2022/06/25 05:32:36;;;;;;;3.30;1.75;;;15.90;99.90;;;;;;4999234;28;20045;-38
2022/06/25 05:35:02;;;;;;;2.08;1.75;;;16.00;99.90;;;;;;4998460;28;20034;-39
2022/06/25 05:37:28;;;;;;;3.05;1.83;;;16.00;99.90;;;;;;5000708;28;20430;-38
2022/06/25 05:39:53;;;;;;;2.15;1.92;;;16.10;99.90;;;;;;5000245;28;20053;-39
2022/06/25 05:42:22;;;;;;;3.38;1.80;;;16.00;99.90;;;;;;4997916;28;20021;-39
2022/06/25 05:44:48;;;;;;;;;;;16.10;99.90;;;;;;5000053;28;20529;-39
2022/06/25 05:47:13;;;;;;;4.47;2.10;;;16.00;99.90;;;;;;5001438;28;19922;-38
2022/06/25 05:49:39;;;;;;;1.77;1.67;;;16.10;99.90;;;;;;5000853;28;20030;-38
2022/06/25 05:52:05;;;;;;;2.20;2.00;;;16.20;99.90;;;;;;5006719;28;20105;-39
2022/06/25 05:54:31;;;;;;;2.03;1.83;;;16.30;99.90;;;;;;5008805;28;20034;-38
2022/06/25 05:56:56;;;;;;;2.13;1.92;;;16.30;99.90;;;;;;5007443;28;20473;-37
2022/06/25 05:59:22;;;;;;;3.33;2.75;;;16.30;99.90;;;;;;5006082;28;20033;-38
2022/06/25 06:01:47;;;;;;;2.08;1.90;;;16.40;99.90;;;;;;4999160;28;20045;-37
2022/06/25 06:04:13;;;;;;;4.55;2.20;;;16.50;99.90;;;;;;5000735;28;20030;-38
2022/06/25 06:06:39;;;;;;;5.88;2.15;;;16.50;99.90;;;;;;5000191;28;20042;-38
2022/06/25 06:09:04;;;;;;;2.05;1.90;;;16.60;99.90;;;;;;4998419;28;21291;-38
2022/06/25 06:11:30;;;;;;;4.22;2.00;;;16.70;99.90;;;;;;4993822;28;20076;-37
2022/06/25 06:13:55;;;;;;;2.67;1.90;;;16.80;99.90;;;;;;4997717;28;20021;-39
2022/06/25 06:16:21;;;;;;;2.90;1.98;;;16.90;99.90;;;;;;4998172;28;20537;-36
2022/06/25 06:18:46;;;;;;;2.17;1.98;;;17.20;99.90;;;;;;4998053;28;20044;-39
2022/06/25 06:21:12;;;;;;;1.95;1.83;;;17.20;99.90;;;;;;4998582;28;20140;-39
2022/06/25 06:23:38;;;;;;;2.28;1.80;;;17.30;99.90;;;;;;5000620;28;20419;-39
2022/06/25 06:26:03;;;;;;;2.63;2.40;;;17.30;99.90;;;;;;4996182;28;20415;-39
2022/06/25 06:28:29;;;;;;;2.33;1.98;;;17.50;99.90;;;;;;5009409;28;20025;-36
2022/06/25 06:30:54;;;;;;;2.55;2.35;;;17.60;99.90;;;;;;4998843;28;20097;-38
2022/06/25 06:33:20;;;;;;;2.13;1.92;;;17.60;99.90;;;;;;5000657;28;20092;-39
2022/06/25 06:35:46;;;;;;;2.78;1.80;;;17.70;99.90;;;;;;4997991;28;20038;-37
2022/06/25 06:38:11;;;;;;;3.13;1.85;;;17.90;99.90;;;;;;4998863;28;20025;-39
2022/06/25 06:40:37;;;;;;;2.05;1.23;;;18.00;99.90;;;;;;5005674;28;20049;-37
2022/06/25 06:43:03;;;;;;;1.70;1.60;;;17.90;99.90;;;;;;4999749;28;20034;-39
2022/06/25 06:45:29;;;;;;;1.58;1.48;;;18.20;99.90;;;;;;5000685;28;20029;-38
2022/06/25 06:47:54;;;;;;;1.10;1.10;;;18.30;99.90;;;;;;5000482;28;20092;-39
2022/06/25 06:50:20;;;;;;;2.03;1.20;;;18.50;99.90;;;;;;5000571;28;20124;-38
2022/06/25 06:52:46;;;;;;;1.45;1.35;;;18.70;99.90;;;;;;5001484;28;20105;-37
2022/06/25 06:55:11;;;;;;;1.52;1.20;;;18.90;99.90;;;;;;5001263;28;20076;-39
2022/06/25 06:57:37;;;;;;;1.70;1.50;;;18.80;99.90;;;;;;4996663;28;20084;-37
2022/06/25 07:00:06;;;;;;;1.42;1.33;;;18.70;99.90;;;;;;4997780;28;20278;-39
2022/06/25 07:02:32;;;;;;;2.35;1.33;;;18.30;99.90;;;;;;4997356;28;20088;-39
2022/06/25 07:04:57;;;;;;;1.83;1.50;;;18.50;99.90;;;;;;5000948;28;21255;-39
2022/06/25 07:07:23;;;;;;;1.85;1.33;;;18.60;99.90;;;;;;4997626;28;20085;-39
2022/06/25 07:09:49;;;;;;;1.27;1.23;;;18.80;99.90;;;;;;4995925;28;20878;-39
2022/06/25 07:12:15;;;;;;;1.52;1.42;;;19.00;99.90;;;;;;4996558;28;20030;-37
2022/06/25 07:14:41;;;;;;;2.15;1.17;;;19.20;99.90;;;;;;4998485;28;20080;-39
2022/06/25 07:17:07;;;;;;;1.83;1.38;;;19.40;99.90;;;;;;4997243;28;20116;-38
2022/06/25 07:19:32;;;;;;;2.17;1.30;;;19.60;99.90;;;;;;4996854;28;20053;-39
2022/06/25 07:21:58;;;;;;;1.60;1.10;;;19.60;99.90;;;;;;4998888;28;20033;-38
2022/06/25 07:24:24;;;;;;;1.10;1.10;;;19.80;99.90;;;;;;5000122;28;20045;-39
2022/06/25 07:26:50;;;;;;;1.10;1.10;;;19.90;99.90;;;;;;4997789;28;20034;-39
2022/06/25 07:29:16;;;;;;;1.00;1.00;;;20.10;99.90;;;;;;4997574;28;21361;-39
2022/06/25 07:31:42;;;;;;;2.85;1.90;;;20.00;99.90;;;;;;4998756;28;20384;-37
2022/06/25 07:34:08;;;;;;;1.25;1.10;;;20.20;99.90;;;;;;4996306;28;20053;-39
2022/06/25 07:36:33;;;;;;;1.00;1.00;;;20.30;99.90;;;;;;4997501;28;20072;-39
2022/06/25 07:39:00;;;;;;;1.95;1.00;;;19.80;99.90;;;;;;5002047;28;20038;-36
2022/06/25 07:41:26;;;;;;;2.00;1.77;;;19.90;99.90;;;;;;5000038;28;20036;-36
2022/06/25 07:43:52;;;;;;;1.38;1.15;;;20.40;99.90;;;;;;5005868;28;20092;-38
2022/06/25 07:46:18;;;;;;;1.10;1.10;;;20.40;99.90;;;;;;5008304;28;20038;-37
2022/06/25 07:48:44;;;;;;;1.08;0.90;;;20.60;99.90;;;;;;5009412;28;20045;-37
2022/06/25 07:53:54;;;;;;;1.15;1.08;;;20.90;99.90;;;;;;5010328;28;20033;-39
2022/06/25 07:56:20;;;;;;;2.60;1.40;;;20.80;99.90;;;;;;5023981;28;20022;-37
2022/06/25 07:58:46;;;;;;;1.40;1.30;;;21.00;99.90;;;;;;5002650;28;20582;-39
2022/06/25 08:01:11;;;;;;;1.35;1.10;;;21.00;98.40;;;;;;5003408;28;20095;-36
2022/06/25 08:03:37;;;;;;;1.33;1.10;;;21.30;99.90;;;;;;5006992;28;20104;-39
2022/06/25 08:06:03;;;;;;;1.70;1.38;;;21.60;97.10;;;;;;5007500;28;20248;-37
2022/06/25 08:08:29;;;;;;;2.47;1.20;;;21.80;98.70;;;;;;5004614;28;20048;-39
2022/06/25 08:10:55;;;;;;;1.27;1.17;;;21.90;97.50;;;;;;5006725;28;20034;-39
2022/06/25 08:13:22;;;;;;;3.40;1.30;;;21.80;95.40;;;;;;5002495;28;20032;-38
2022/06/25 08:15:48;;;;;;;1.35;0.93;;;21.70;96.20;;;;;;5002844;28;20021;-38
2022/06/25 08:18:14;;;;;;;1.13;1.10;;;21.80;95.60;;;;;;5004484;28;20033;-36
2022/06/25 08:20:39;;;;;;;2.40;1.10;;;21.80;98.70;;;;;;5001119;28;20739;-38
2022/06/25 08:23:05;;;;;;;2.13;1.10;;;22.40;97.70;;;;;;5003629;28;20072;-38
2022/06/25 08:25:31;;;;;;;3.25;1.20;;;21.70;93.70;;;;;;5003595;28;20522;-37
2022/06/25 08:27:56;;;;;;;2.42;1.33;;;21.40;94.20;;;;;;5000373;28;20033;-38
2022/06/25 08:30:23;;;;;;;1.83;1.73;;;21.40;97.60;;;;;;5003650;28;20399;-37
2022/06/25 08:32:49;;;;;;;2.07;1.00;;;21.50;97.90;;;;;;5005390;28;20022;-38
2022/06/25 08:35:15;;;;;;;3.13;1.42;;;22.00;96.60;;;;;;5002034;28;20069;-37
2022/06/25 08:37:49;;;;;;;1.10;1.00;;;22.20;93.20;;;;;;5002277;28;20023;-36
2022/06/25 08:40:17;;;;;;;1.20;1.10;;;22.00;85.20;;;;;;5002827;28;20026;-36
2022/06/25 08:42:43;;;;;;;2.22;1.40;;;22.40;90.80;;;;;;5003347;28;20034;-37
2022/06/25 08:45:10;;;;;;;1.20;1.20;;;22.60;96.50;;;;;;5000237;28;20026;-38
2022/06/25 08:47:44;;;;;;;1.40;1.30;;;23.00;94.60;;;;;;4997091;28;20057;-39
2022/06/25 08:50:11;;;;;;;2.20;1.10;;;23.20;93.90;;;;;;5002504;28;20030;-39
2022/06/25 08:52:38;;;;;;;1.42;1.30;;;23.90;90.00;;;;;;5001778;28;20042;-36
2022/06/25 08:55:04;;;;;;;1.20;1.00;;;23.70;85.70;;;;;;5001797;28;20061;-35
2022/06/25 08:57:30;;;;;;;1.13;1.00;;;23.30;90.50;;;;;;5000536;28;20778;-35
2022/06/25 08:59:56;;;;;;;1.42;1.10;;;23.00;90.90;;;;;;5001309;28;20026;-36
2022/06/25 09:02:22;;;;;;;2.40;1.25;;;22.80;91.10;;;;;;5004527;28;20048;-39
2022/06/25 09:04:47;;;;;;;3.28;1.40;;;22.60;92.40;;;;;;5000599;28;20030;-39
2022/06/25 09:07:15;;;;;;;4.45;1.40;;;22.30;91.60;;;;;;5000594;28;20488;-39
2022/06/25 09:09:51;;;;;;;1.67;1.25;;;21.80;84.60;;;;;;5000138;28;20475;-36
2022/06/25 09:12:18;;;;;;;1.13;1.10;;;21.50;94.40;;;;;;5000672;28;20036;-39
2022/06/25 09:14:44;;;;;;;1.23;1.20;;;21.60;90.90;;;;;;5001625;28;20041;-38
2022/06/25 09:17:14;;;;;;;1.38;1.27;;;21.60;93.80;;;;;;5002159;28;20026;-36
2022/06/25 09:19:40;;;;;;;3.25;1.05;;;21.50;93.50;;;;;;5001057;28;20443;-39
2022/06/25 09:22:11;;;;;;;2.30;1.20;;;21.70;94.70;;;;;;4999139;28;20037;-36
2022/06/25 09:24:43;;;;;;;2.13;1.50;;;22.00;91.50;;;;;;5001210;28;20041;-35
2022/06/25 09:27:08;;;;;;;1.25;1.20;;;22.10;89.10;;;;;;5000311;28;20025;-39
2022/06/25 09:29:45;;;;;;;1.83;1.70;;;22.60;90.70;;;;;;4996816;28;20553;-37
2022/06/25 09:32:13;;;;;;;1.50;1.40;;;23.10;90.10;;;;;;5000323;28;20125;-37
2022/06/25 09:34:39;;;;;;;;;;;22.80;83.70;;;;;;5014864;28;20348;-39
2022/06/25 09:37:26;;;;;;;1.88;1.35;;;22.30;90.20;;;;;;5000081;28;19917;-39
2022/06/25 09:39:54;;;;;;;1.38;1.27;;;21.70;84.30;;;;;;4997546;28;20026;-39
2022/06/25 09:42:29;;;;;;;1.05;0.95;;;22.30;90.00;;;;;;4996654;28;20485;-37
2022/06/25 09:45:05;;;;;;;1.02;0.93;;;22.70;85.20;;;;;;5001384;28;20038;-39
2022/06/25 09:47:35;;;;;;;1.45;1.35;;;22.90;84.50;;;;;;4998952;28;20030;-38
2022/06/25 09:50:08;;;;;;;1.00;1.00;;;23.10;82.90;;;;;;4998616;28;20030;-38
2022/06/25 09:52:36;;;;;;;1.10;1.10;;;23.50;82.20;;;;;;4998873;28;20030;-36
2022/06/25 09:55:02;;;;;;;1.10;1.00;;;23.60;74.60;;;;;;5000208;28;20030;-38
2022/06/25 09:57:29;;;;;;;2.42;1.00;;;23.10;71.70;;;;;;5001002;28;20065;-39
2022/06/25 09:59:58;;;;;;;2.35;1.30;;;23.50;73.60;;;;;;4997456;28;20375;-39
2022/06/25 10:02:28;;;;;;;1.92;1.33;;;23.90;70.50;;;;;;5000321;28;21723;-37
2022/06/25 10:05:00;;;;;;;1.20;1.10;;;23.00;76.50;;;;;;4997062;28;20450;-39
2022/06/25 10:07:59;;;;;;;0.98;0.98;;;22.70;79.10;;;;;;4998593;28;20088;-36
2022/06/25 10:10:21;;;;;;;0.95;0.80;;;23.30;86.70;;;;;;4997743;28;20022;-37
2022/06/25 10:12:49;;;;;;;1.20;1.10;;;23.50;79.50;;;;;;4998183;28;20034;-38
2022/06/25 10:15:20;;;;;;;1.20;1.10;;;23.80;77.80;;;;;;4998520;28;20068;-36
2022/06/25 10:17:47;;;;;;;0.85;0.70;;;24.10;72.40;;;;;;5000169;28;20450;-39
2022/06/25 10:20:15;;;;;;;2.67;1.45;;;23.80;74.00;;;;;;4998774;28;20153;-36
2022/06/25 10:22:41;;;;;;;1.83;1.17;;;23.60;67.50;;;;;;4997950;28;20052;-37
2022/06/25 10:25:13;;;;;;;1.77;1.10;;;22.70;68.00;;;;;;4998959;28;20088;-38
2022/06/25 10:27:44;;;;;;;2.08;1.13;;;22.20;75.20;;;;;;5001376;28;20034;-37
2022/06/25 10:30:11;;;;;;;5.30;2.40;;;22.70;87.50;;;;;;4998291;28;20040;-39
2022/06/25 10:32:48;;;;;;;2.70;1.02;;;22.90;88.60;;;;;;5001005;28;20137;-39
2022/06/25 10:35:34;;;;;;;5.45;1.98;;;22.80;76.30;;;;;;4996850;28;20959;-36
2022/06/25 10:38:24;;;;;;;1.17;1.08;;;22.80;77.00;;;;;;4998792;28;20030;-36
2022/06/25 10:40:59;;;;;;;1.30;1.20;;;22.60;87.00;;;;;;5015173;28;20034;-37
2022/06/25 10:43:45;;;;;;;1.10;1.00;;;22.50;85.90;;;;;;4998413;28;20022;-39
2022/06/25 10:46:30;;;;;;;1.27;1.17;;;23.00;92.80;;;;;;4997666;28;20033;-38
2022/06/25 10:49:18;;;;;;;1.33;1.23;;;23.30;75.50;;;;;;4997128;28;20052;-38
2022/06/25 10:51:44;;;;;;;;;;;23.50;75.20;;;;;;4997501;28;20076;-38
2022/06/25 10:54:22;;;;;;;1.00;1.00;;;23.60;66.10;;;;;;4998790;28;19916;-38
2022/06/25 10:56:49;;;;;;;1.00;1.00;;;23.90;68.00;;;;;;4998153;28;20034;-38
2022/06/25 10:59:47;;;;;;;0.75;0.75;;;23.60;74.60;;;;;;5000631;28;20116;-39
2022/06/25 11:02:23;;;;;;;1.98;0.90;;;23.60;68.70;;;;;;4993172;28;20073;-37
2022/06/25 11:04:54;;;;;;;1.27;0.90;;;23.70;70.50;;;;;;5000457;28;20046;-39
2022/06/25 11:07:24;;;;;;;3.35;0.98;;;23.30;63.20;;;;;;4998985;28;20140;-38
2022/06/25 11:09:57;;;;;;;3.60;1.30;;;23.30;69.60;;;;;;4997388;28;22039;-39
2022/06/25 11:12:25;;;;;;;0.90;0.75;;;23.10;73.50;;;;;;5002515;28;20037;-36
2022/06/25 11:14:59;;;;;;;6.65;1.73;;;23.60;75.80;;;;;;5004258;28;20033;-39
2022/06/25 11:17:25;;;;;;;62.42;8.07;;;23.90;72.90;;;;;;5006994;28;20029;-35
2022/06/25 11:19:51;;;;;;;2.50;1.17;;;24.20;57.80;;;;;;5001287;28;20038;-36
2022/06/25 11:22:17;;;;;;;0.73;0.73;;;24.10;63.70;;;;;;5002509;28;20029;-37
2022/06/25 11:30:20;;;;;;;1.30;0.70;;;23.70;64.80;;;;;;5000612;28;20534;-39
2022/06/25 11:32:46;;;;;;;1.23;0.90;;;24.00;62.10;;;;;;5002842;28;20437;-39
2022/06/25 11:35:11;;;;;;;0.90;0.90;;;24.20;59.50;;;;;;5003469;28;20030;-38
2022/06/25 11:37:37;;;;;;;0.77;0.77;;;23.50;62.10;;;;;;5002511;28;20061;-37
2022/06/25 11:40:11;;;;;;;4.07;1.42;;;22.80;60.90;;;;;;5001863;28;20045;-39
2022/06/25 11:42:37;;;;;;;1.27;1.05;;;22.70;64.10;;;;;;5001672;28;20049;-36
2022/06/25 11:45:02;;;;;;;0.80;0.80;;;22.70;65.20;;;;;;5003022;28;20033;-38
2022/06/25 11:47:32;;;;;;;1.77;1.00;;;22.60;71.70;;;;;;4999020;28;20160;-36
2022/06/25 11:49:58;;;;;;;0.95;0.95;;;22.90;68.50;;;;;;5000040;28;20127;-37
2022/06/25 11:52:25;;;;;;;2.25;0.90;;;22.90;66.00;;;;;;5002028;28;20479;-39
2022/06/25 11:54:52;;;;;;;1.05;1.05;;;23.00;66.20;;;;;;5002499;28;20092;-39
2022/06/25 11:57:21;;;;;;;0.80;0.80;;;23.30;70.30;;;;;;5002895;28;20042;-36
2022/06/25 11:59:49;;;;;;;1.05;0.93;;;23.50;66.80;;;;;;5003307;28;20037;-39
2022/06/25 12:02:14;;;;;;;1.77;1.20;;;23.80;64.00;;;;;;5003008;28;20414;-38
2022/06/25 12:04:53;;;;;;;0.80;0.80;;;23.90;70.40;;;;;;5002238;28;20030;-35
2022/06/25 12:07:20;;;;;;;0.80;0.80;;;24.20;64.10;;;;;;5002735;28;20058;-36
2022/06/25 12:09:47;;;;;;;0.80;0.80;;;23.90;63.70;;;;;;5001425;28;20079;-37
2022/06/25 12:12:13;;;;;;;0.93;0.90;;;24.10;59.80;;;;;;5002619;28;20022;-36
2022/06/25 12:14:40;;;;;;;1.67;0.80;;;24.00;54.50;;;;;;5002849;28;20076;-37
2022/06/25 12:17:06;;;;;;;0.73;0.57;;;24.00;55.30;;;;;;5005019;28;20408;-38
2022/06/25 12:19:52;;;;;;;1.10;0.75;;;23.80;52.90;;;;;;5001299;28;20040;-37
2022/06/25 12:22:28;;;;;;;0.68;0.68;;;23.50;50.20;;;;;;5000211;28;20080;-39
2022/06/25 12:25:00;;;;;;;1.40;0.80;;;23.40;52.30;;;;;;5002914;28;20037;-38
2022/06/25 12:27:26;;;;;;;0.60;0.60;;;23.50;52.30;;;;;;5003577;28;20034;-38
2022/06/25 12:29:55;;;;;;;3.45;1.10;;;23.80;60.70;;;;;;5002602;28;20057;-36
2022/06/25 12:32:42;;;;;;;1.13;1.00;;;24.10;57.20;;;;;;5018677;28;20614;-39
2022/06/25 12:35:18;;;;;;;3.00;0.88;;;24.00;56.70;;;;;;5002071;28;20383;-39
2022/06/25 12:38:01;;;;;;;2.58;0.80;;;23.80;54.90;;;;;;5001659;28;20473;-35
2022/06/25 12:40:28;;;;;;;0.75;0.70;;;23.60;56.00;;;;;;5001463;28;20045;-39
2022/06/25 12:42:59;;;;;;;0.70;0.70;;;23.80;55.50;;;;;;5000154;28;20091;-38
2022/06/25 12:45:25;;;;;;;1.52;0.90;;;23.60;55.10;;;;;;5001195;28;20041;-36
2022/06/25 12:47:52;;;;;;;1.70;0.90;;;23.80;59.90;;;;;;5000890;28;20034;-38
2022/06/25 12:50:26;;;;;;;1.00;1.00;;;24.30;61.00;;;;;;5001980;28;20034;-37
2022/06/25 12:52:53;;;;;;;1.20;1.10;;;24.40;63.10;;;;;;5001618;28;20061;-37
2022/06/25 12:55:24;;;;;;;0.90;0.90;;;24.40;63.50;;;;;;5001803;28;20032;-38
2022/06/25 12:57:50;;;;;;;0.80;0.80;;;24.50;65.10;;;;;;5002655;28;20087;-39
2022/06/25 13:00:24;;;;;;;3.92;1.13;;;24.50;68.50;;;;;;5002730;28;20149;-37
2022/06/25 13:02:50;;;;;;;0.93;0.80;;;24.40;61.50;;;;;;5001762;28;20069;-37
2022/06/25 13:05:19;;;;;;;0.80;0.80;;;24.40;68.20;;;;;;5000170;28;20119;-38